Time;durP1;ratioP1;P1;durP2;ratioP2;P2;SDS_P1;SDS_P2;PMS_P1;PMS_P2;Temp;Humidity;BMP_temperature;BMP_pressure;BME280_temperature;BME280_humidity;BME280_pressure;Samples;Min_cycle;Max_cycle;Signal;HPM_P1;HPM_P2
2023/05/22 00:00:06;;;;;;;;;16.00;13.67;;;;;19.10;52.72;101381.09;6215443;22;45340;-64
2023/05/22 00:02:37;;;;;;;;;14.67;11.67;;;;;19.11;53.04;101382.84;6188694;22;45224;-64
2023/05/22 00:05:05;;;;;;;;;16.00;12.67;;;;;19.14;52.84;101382.59;6214805;22;45960;-64
2023/05/22 00:07:31;;;;;;;;;16.67;13.67;;;;;19.18;52.72;101380.53;6188508;22;45252;-64
2023/05/22 00:09:56;;;;;;;;;15.33;13.67;;;;;19.24;52.31;101371.09;6215451;22;45221;-64
2023/05/22 00:12:22;;;;;;;;;15.67;10.33;;;;;19.27;52.28;101368.16;6214748;22;64311;-65
2023/05/22 00:14:47;;;;;;;;;12.67;12.33;;;;;19.28;52.55;101368.03;6214943;22;45565;-64
2023/05/22 00:17:13;;;;;;;;;15.67;11.67;;;;;19.30;52.42;101376.00;6187539;22;70185;-65
2023/05/22 00:19:39;;;;;;;;;16.67;16.67;;;;;19.31;52.09;101375.88;6188206;22;45322;-64
2023/05/22 00:22:04;;;;;;;;;12.00;12.00;;;;;19.30;52.03;101368.75;6215396;22;45247;-64
2023/05/22 00:24:30;;;;;;;;;14.00;12.33;;;;;19.31;51.60;101372.34;6189146;22;45519;-65
2023/05/22 00:26:56;;;;;;;;;13.00;10.00;;;;;19.31;51.79;101366.94;6187936;22;45398;-64
2023/05/22 00:29:21;;;;;;;;;14.67;13.67;;;;;19.31;51.93;101369.66;6188540;22;45352;-64
2023/05/22 00:31:47;;;;;;;;;19.33;15.33;;;;;19.33;51.72;101365.84;6215197;22;45449;-65
2023/05/22 00:34:12;;;;;;;;;17.00;14.00;;;;;19.34;51.73;101362.16;6188128;22;46193;-65
2023/05/22 00:36:37;;;;;;;;;14.33;10.67;;;;;19.39;51.86;101369.03;6215579;22;45291;-64
2023/05/22 00:39:03;;;;;;;;;10.00;10.00;;;;;19.41;51.36;101369.75;6214195;22;65682;-65
2023/05/22 00:41:29;;;;;;;;;13.00;13.00;;;;;19.43;51.63;101368.66;6214848;22;67118;-65
2023/05/22 00:43:54;;;;;;;;;15.00;12.33;;;;;19.44;51.10;101369.53;6214379;22;45410;-64
2023/05/22 00:46:20;;;;;;;;;13.67;11.33;;;;;19.45;51.51;101377.50;6163340;22;45823;-65
2023/05/22 00:48:46;;;;;;;;;11.67;11.00;;;;;19.45;51.31;101373.94;6214382;22;45415;-65
2023/05/22 00:51:12;;;;;;;;;16.67;14.00;;;;;19.45;51.09;101369.41;6214780;22;45511;-64
2023/05/22 00:53:37;;;;;;;;;14.00;13.33;;;;;19.43;51.06;101373.22;6214271;22;63660;-65
2023/05/22 00:56:03;;;;;;;;;17.67;14.67;;;;;19.41;51.27;101369.75;6186882;22;69905;-65
2023/05/22 00:58:29;;;;;;;;;12.00;10.33;;;;;19.32;51.14;101365.94;6215293;22;45344;-65
2023/05/22 01:00:55;;;;;;;;;15.67;14.00;;;;;19.29;51.20;101367.03;6214619;22;45617;-65
2023/05/22 01:03:24;;;;;;;;;13.00;10.67;;;;;19.27;51.00;101365.47;6214579;22;63149;-64
2023/05/22 01:05:50;;;;;;;;;15.67;12.00;;;;;19.23;51.52;101367.53;6214340;22;45436;-65
2023/05/22 01:08:16;;;;;;;;;16.67;13.00;;;;;19.19;51.37;101357.97;6215073;22;45229;-64
2023/05/22 01:10:41;;;;;;;;;13.00;13.00;;;;;19.16;51.18;101360.88;6162464;22;45210;-65
2023/05/22 01:13:33;;;;;;;;;15.00;14.33;;;;;19.13;51.48;101356.59;6214776;22;45265;-65
2023/05/22 01:16:06;;;;;;;;;13.33;11.00;;;;;19.10;51.38;101356.84;6209925;22;45359;-64
2023/05/22 01:19:06;;;;;;;;;15.67;12.67;;;;;19.06;51.22;101358.06;6188601;22;45391;-65
2023/05/22 01:21:57;;;;;;;;;14.00;12.67;;;;;19.01;51.08;101357.56;6215571;22;45357;-65
2023/05/22 01:24:32;;;;;;;;;10.00;10.00;;;;;18.99;50.99;101351.41;6188169;22;46550;-65
2023/05/22 01:27:24;;;;;;;;;14.00;12.33;;;;;18.97;51.11;101359.63;6187924;22;45344;-65
2023/05/22 01:30:11;;;;;;;;;14.33;13.00;;;;;18.95;51.31;101358.88;6188116;22;45296;-64
2023/05/22 01:32:38;;;;;;;;;16.33;12.00;;;;;18.89;51.21;101356.66;6215346;22;45259;-64
2023/05/22 01:35:07;;;;;;;;;14.33;14.33;;;;;18.83;51.02;101359.78;6187612;22;71726;-65
2023/05/22 01:37:33;;;;;;;;;13.67;13.33;;;;;18.79;51.09;101356.47;6214946;22;45263;-65
2023/05/22 01:39:58;;;;;;;;;16.00;14.00;;;;;18.76;50.94;101355.84;6188248;22;45308;-65
2023/05/22 01:42:24;;;;;;;;;15.00;11.00;;;;;18.66;51.10;101351.16;6186934;22;67747;-64
2023/05/22 01:44:50;;;;;;;;;12.00;11.67;;;;;18.58;51.36;101348.19;6214491;22;46049;-64
2023/05/22 01:47:16;;;;;;;;;12.67;12.67;;;;;18.50;51.51;101343.38;6215013;22;45304;-64
2023/05/22 01:49:42;;;;;;;;;14.00;10.67;;;;;18.43;51.41;101343.94;6214861;22;45395;-64
2023/05/22 01:52:33;;;;;;;;;16.33;13.67;;;;;18.33;51.75;101344.63;6188567;22;45263;-64
2023/05/22 01:55:46;;;;;;;;;14.33;13.67;;;;;18.24;52.13;101356.09;6188263;22;45586;-66
2023/05/22 01:58:23;;;;;;;;;18.33;14.33;;;;;18.16;51.70;101350.38;6167798;22;45667;-66
2023/05/22 02:00:50;;;;;;;;;14.67;13.33;;;;;18.09;52.14;101347.28;6188398;22;45321;-66
2023/05/22 02:03:18;;;;;;;;;13.00;13.00;;;;;18.02;52.47;101349.56;6215275;22;45435;-65
2023/05/22 02:05:44;;;;;;;;;11.33;11.33;;;;;17.96;52.59;101350.00;6187558;22;45396;-65
2023/05/22 02:08:10;;;;;;;;;8.67;8.33;;;;;17.95;52.68;101351.00;6188459;22;45453;-65
2023/05/22 02:10:37;;;;;;;;;13.00;13.00;;;;;17.94;52.94;101345.72;6187934;22;45349;-66
2023/05/22 02:13:03;;;;;;;;;12.67;12.67;;;;;17.91;52.92;101346.75;6213018;22;45280;-66
2023/05/22 02:15:29;;;;;;;;;13.67;12.67;;;;;17.92;53.06;101344.94;6187893;22;45315;-66
2023/05/22 02:17:55;;;;;;;;;16.67;14.33;;;;;17.94;53.01;101351.97;6187827;22;45506;-66
2023/05/22 02:20:21;;;;;;;;;15.33;14.67;;;;;17.97;52.81;101353.59;6214237;22;45296;-65
2023/05/22 02:22:47;;;;;;;;;12.67;12.67;;;;;17.99;52.97;101355.19;6214250;22;45340;-66
2023/05/22 02:25:16;;;;;;;;;19.00;16.00;;;;;18.00;52.91;101350.66;6214806;22;45319;-66
2023/05/22 02:27:42;;;;;;;;;18.67;14.00;;;;;17.93;52.61;101341.31;6214727;22;45619;-66
2023/05/22 02:30:08;;;;;;;;;17.33;14.67;;;;;17.86;52.84;101346.25;6188260;22;45269;-66
2023/05/22 02:32:34;;;;;;;;;13.33;12.33;;;;;17.77;52.75;101350.47;6214355;22;45322;-64
2023/05/22 02:35:00;;;;;;;;;13.00;13.00;;;;;17.74;52.92;101352.50;6213409;22;46419;-66
2023/05/22 02:37:25;;;;;;;;;14.33;12.33;;;;;17.71;53.29;101347.38;6214926;22;45374;-65
2023/05/22 02:39:50;;;;;;;;;15.00;14.67;;;;;17.65;53.06;101345.94;6186905;22;67351;-66
2023/05/22 02:42:16;;;;;;;;;13.33;13.33;;;;;17.64;53.94;101345.09;6187591;22;45234;-66
2023/05/22 02:44:41;;;;;;;;;15.00;15.00;;;;;17.64;53.58;101347.78;6186854;22;45986;-66
2023/05/22 02:47:06;;;;;;;;;15.00;12.67;;;;;17.62;53.15;101352.41;6214849;22;45301;-66
2023/05/22 02:49:32;;;;;;;;;16.67;15.00;;;;;17.59;53.39;101346.41;6214550;22;45273;-65
2023/05/22 02:51:57;;;;;;;;;10.00;7.00;;;;;17.56;53.85;101343.91;6213682;22;61603;-66
2023/05/22 02:54:22;;;;;;;;;11.33;11.00;;;;;17.51;53.27;101346.97;6213477;22;72150;-67
2023/05/22 02:56:48;;;;;;;;;14.33;13.00;;;;;17.46;53.40;101336.50;6212552;22;70405;-66
2023/05/22 02:59:13;;;;;;;;;14.33;13.33;;;;;17.45;53.85;101342.00;6214638;22;45597;-66
2023/05/22 03:01:39;;;;;;;;;18.67;15.33;;;;;17.44;53.70;101351.91;6215184;22;45284;-66
2023/05/22 03:04:05;;;;;;;;;15.33;13.33;;;;;17.44;53.96;101351.03;6214114;22;46487;-66
2023/05/22 03:06:31;;;;;;;;;16.00;12.00;;;;;17.44;53.75;101353.72;6214437;22;45279;-66
2023/05/22 03:08:56;;;;;;;;;12.67;12.67;;;;;17.44;53.65;101354.59;6213609;22;45261;-66
2023/05/22 03:11:21;;;;;;;;;15.00;12.67;;;;;17.49;53.88;101356.94;6214717;22;45273;-66
2023/05/22 03:13:47;;;;;;;;;15.33;14.00;;;;;17.49;53.75;101356.94;6213102;22;61321;-66
2023/05/22 03:16:12;;;;;;;;;13.67;12.67;;;;;17.47;53.54;101356.19;6214116;22;45389;-66
2023/05/22 03:18:38;;;;;;;;;16.00;10.00;;;;;17.47;53.71;101349.00;6213971;22;45783;-66
2023/05/22 03:21:03;;;;;;;;;15.67;13.67;;;;;17.48;54.09;101353.41;6212423;22;67811;-66
2023/05/22 03:23:29;;;;;;;;;14.33;14.33;;;;;17.46;53.84;101349.97;6215566;22;45327;-65
2023/05/22 03:25:55;;;;;;;;;20.33;14.67;;;;;17.46;53.96;101360.72;6215160;22;45181;-66
2023/05/22 03:28:20;;;;;;;;;14.00;11.33;;;;;17.46;53.71;101362.56;6188854;22;45368;-66
2023/05/22 03:30:46;;;;;;;;;15.00;14.67;;;;;17.43;53.83;101355.56;6213875;22;65932;-65
2023/05/22 03:33:11;;;;;;;;;17.00;14.00;;;;;17.40;53.96;101352.22;6215602;22;45288;-66
2023/05/22 03:35:37;;;;;;;;;15.00;13.67;;;;;17.32;54.08;101347.38;6187001;22;66655;-66
2023/05/22 03:38:02;;;;;;;;;17.00;15.33;;;;;17.27;54.25;101345.00;6215709;22;45381;-66
2023/05/22 03:40:27;;;;;;;;;14.00;14.00;;;;;17.22;53.84;101352.53;6214536;22;68066;-66
2023/05/22 03:42:53;;;;;;;;;17.33;13.67;;;;;17.18;54.33;101345.66;6214151;22;71105;-66
2023/05/22 03:45:18;;;;;;;;;12.33;12.00;;;;;17.14;54.29;101336.97;6215597;22;45363;-66
2023/05/22 03:47:43;;;;;;;;;13.33;13.33;;;;;17.11;54.08;101339.00;6188936;22;45366;-66
2023/05/22 03:50:09;;;;;;;;;17.33;15.67;;;;;17.10;54.51;101342.63;6214531;22;60549;-66
2023/05/22 03:52:34;;;;;;;;;17.67;14.33;;;;;17.07;54.75;101345.53;6215443;22;45469;-66
2023/05/22 03:55:00;;;;;;;;;18.00;14.67;;;;;17.02;54.67;101340.47;6214243;22;64751;-66
2023/05/22 03:57:26;;;;;;;;;22.33;15.67;;;;;16.98;55.21;101347.88;6188419;22;45321;-67
2023/05/22 03:59:51;;;;;;;;;12.67;12.67;;;;;16.94;55.47;101345.53;6189492;22;45460;-66
2023/05/22 04:02:16;;;;;;;;;19.33;17.00;;;;;16.90;55.28;101349.34;6162788;22;67003;-66
2023/05/22 04:04:44;;;;;;;;;21.00;15.67;;;;;16.87;55.40;101353.13;6214211;22;57958;-66
2023/05/22 04:07:11;;;;;;;;;14.67;13.33;;;;;16.84;55.42;101354.19;6215490;22;45315;-65
2023/05/22 04:09:37;;;;;;;;;22.00;19.33;;;;;16.83;55.48;101351.56;6188377;22;45194;-66
2023/05/22 04:12:02;;;;;;;;;16.67;15.00;;;;;16.82;55.33;101350.72;6214276;22;61442;-65
2023/05/22 04:14:28;;;;;;;;;17.00;16.33;;;;;16.82;55.76;101356.09;6188838;22;45368;-66
2023/05/22 04:16:53;;;;;;;;;15.33;14.00;;;;;16.84;55.36;101370.31;6187056;22;68015;-66
2023/05/22 04:19:19;;;;;;;;;20.67;15.00;;;;;16.87;56.03;101364.72;6213673;22;45606;-66
2023/05/22 04:21:44;;;;;;;;;14.67;14.67;;;;;16.92;56.18;101366.25;6214924;22;45714;-66
2023/05/22 04:24:10;;;;;;;;;14.33;13.00;;;;;16.98;56.07;101365.84;6188660;22;45434;-66
2023/05/22 04:26:37;;;;;;;;;18.67;15.67;;;;;17.05;55.58;101363.59;6187668;22;62059;-66
2023/05/22 04:29:03;;;;;;;;;14.67;14.67;;;;;17.09;55.38;101357.91;6215420;22;45187;-66
2023/05/22 04:31:28;;;;;;;;;17.00;14.33;;;;;17.18;55.63;101362.66;6214138;22;46885;-66
2023/05/22 04:33:54;;;;;;;;;19.33;17.33;;;;;17.23;55.21;101365.00;6214261;22;45794;-66
2023/05/22 04:36:25;;;;;;;;;15.67;14.00;;;;;17.29;55.46;101361.91;6215197;22;45229;-65
2023/05/22 04:38:51;;;;;;;;;14.00;13.33;;;;;17.36;55.59;101368.56;6214880;22;45373;-66
2023/05/22 04:41:21;;;;;;;;;18.67;17.00;;;;;17.45;54.90;101369.75;6215042;22;46191;-65
2023/05/22 04:43:47;;;;;;;;;16.67;15.00;;;;;17.56;55.00;101365.44;6213883;22;45239;-65
2023/05/22 04:46:14;;;;;;;;;16.67;16.67;;;;;17.61;55.00;101372.22;6189129;22;45287;-65
2023/05/22 04:48:40;;;;;;;;;17.33;16.00;;;;;17.65;54.88;101376.41;6214959;22;45867;-65
2023/05/22 04:51:05;;;;;;;;;15.00;14.00;;;;;17.67;54.84;101377.16;6215500;22;45474;-65
2023/05/22 04:53:32;;;;;;;;;16.00;13.67;;;;;17.71;54.71;101383.19;6214479;22;68011;-65
2023/05/22 04:55:58;;;;;;;;;12.00;12.00;;;;;17.79;54.75;101386.19;6188533;22;45325;-65
2023/05/22 04:58:23;;;;;;;;;16.67;16.33;;;;;17.85;54.54;101392.97;6215589;22;45177;-66
2023/05/22 05:00:51;;;;;;;;;15.67;14.67;;;;;17.87;54.32;101391.00;6214702;22;52100;-65
2023/05/22 05:03:16;;;;;;;;;15.67;14.00;;;;;17.90;54.26;101395.31;6214611;22;45552;-66
2023/05/22 05:05:42;;;;;;;;;18.33;16.00;;;;;17.95;54.05;101391.38;6186993;22;47186;-65
2023/05/22 05:08:07;;;;;;;;;19.33;15.00;;;;;17.92;54.35;101398.78;6214756;22;45256;-65
2023/05/22 05:10:33;;;;;;;;;15.00;13.00;;;;;17.92;53.91;101388.84;6187427;22;67758;-66
2023/05/22 05:12:58;;;;;;;;;14.00;12.67;;;;;17.94;54.10;101395.03;6213550;22;45343;-65
2023/05/22 05:15:24;;;;;;;;;13.67;13.67;;;;;17.96;54.35;101395.75;6163472;22;45622;-65
2023/05/22 05:17:49;;;;;;;;;15.33;15.00;;;;;17.98;53.93;101395.69;6214822;22;45307;-65
2023/05/22 05:20:15;;;;;;;;;20.33;16.67;;;;;18.00;53.88;101393.72;6186797;22;47951;-65
2023/05/22 05:22:42;;;;;;;;;13.00;12.00;;;;;18.04;53.98;101386.28;6214177;22;45812;-65
2023/05/22 05:25:08;;;;;;;;;16.67;15.00;;;;;18.08;53.89;101398.56;6189011;22;45344;-65
2023/05/22 05:27:33;;;;;;;;;16.00;13.00;;;;;18.14;53.93;101393.56;6214229;22;45455;-65
2023/05/22 05:29:59;;;;;;;;;15.00;13.33;;;;;18.22;53.75;101390.31;6187195;22;64284;-65
2023/05/22 05:32:24;;;;;;;;;16.00;15.00;;;;;18.31;53.31;101386.94;6214269;22;45288;-65
2023/05/22 05:34:50;;;;;;;;;13.67;13.67;;;;;18.40;53.37;101387.28;6186911;22;45960;-65
2023/05/22 05:37:16;;;;;;;;;17.67;16.00;;;;;18.48;53.56;101384.84;6213758;22;45669;-65
2023/05/22 05:39:41;;;;;;;;;17.33;14.33;;;;;18.56;53.25;101389.69;6214763;22;45343;-65
2023/05/22 05:42:07;;;;;;;;;14.33;11.67;;;;;18.63;53.21;101383.72;6214604;22;45371;-65
2023/05/22 05:44:32;;;;;;;;;16.00;16.00;;;;;18.73;52.79;101388.41;6184757;22;45423;-65
2023/05/22 05:46:57;;;;;;;;;16.00;14.33;;;;;18.87;52.61;101380.13;6162238;22;45463;-65
2023/05/22 05:49:23;;;;;;;;;14.67;14.00;;;;;19.00;52.49;101380.94;6187260;22;48187;-66
2023/05/22 05:51:48;;;;;;;;;20.33;16.33;;;;;19.12;52.19;101386.38;6186950;22;55975;-65
2023/05/22 05:54:13;;;;;;;;;16.67;15.67;;;;;19.20;51.80;101383.09;6187043;22;61034;-65
2023/05/22 05:56:39;;;;;;;;;13.33;12.67;;;;;19.26;51.93;101386.16;6214899;22;56431;-65
2023/05/22 05:59:04;;;;;;;;;14.00;14.00;;;;;19.26;51.33;101385.31;6214151;22;45765;-65
2023/05/22 06:01:32;;;;;;;;;17.00;15.00;;;;;19.16;51.42;101380.66;6215153;22;45294;-65
2023/05/22 06:04:01;;;;;;;;;14.00;13.33;;;;;19.10;51.57;101377.53;6187933;22;45302;-65
2023/05/22 06:06:29;;;;;;;;;14.67;14.67;;;;;19.01;51.38;101369.19;6214729;22;45490;-66
2023/05/22 06:08:55;;;;;;;;;14.00;14.00;;;;;19.00;51.66;101370.16;6186698;22;46108;-66
2023/05/22 06:11:21;;;;;;;;;19.00;13.00;;;;;19.05;51.95;101368.97;6187140;22;45547;-66
2023/05/22 06:13:46;;;;;;;;;13.00;13.00;;;;;19.12;51.89;101371.03;6214822;22;45290;-66
2023/05/22 06:16:12;;;;;;;;;16.67;14.33;;;;;19.14;51.68;101373.66;6186466;22;61392;-65
2023/05/22 06:18:37;;;;;;;;;15.33;12.00;;;;;19.12;51.22;101372.91;6186643;22;46109;-66
2023/05/22 06:21:03;;;;;;;;;17.67;14.00;;;;;19.22;51.40;101375.75;6214505;22;45512;-66
2023/05/22 06:23:28;;;;;;;;;14.00;12.67;;;;;19.34;51.27;101377.47;6217194;22;45336;-64
2023/05/22 06:25:54;;;;;;;;;15.33;13.67;;;;;19.49;51.16;101386.22;6187251;22;45485;-66
2023/05/22 06:28:19;;;;;;;;;15.67;13.33;;;;;19.64;51.14;101394.94;6214012;22;46268;-66
2023/05/22 06:30:45;;;;;;;;;15.00;10.33;;;;;19.82;50.57;101392.66;6212454;22;60395;-66
2023/05/22 06:33:10;;;;;;;;;16.00;14.33;;;;;20.11;50.32;101387.56;6214142;22;59415;-66
2023/05/22 06:35:35;;;;;;;;;14.67;12.00;;;;;20.51;49.54;101386.16;6214559;22;45499;-66
2023/05/22 06:38:01;;;;;;;;;15.67;14.00;;;;;20.90;48.56;101389.22;6187471;22;46314;-67
2023/05/22 06:40:27;;;;;;;;;14.67;12.33;;;;;21.31;48.68;101392.94;6214444;22;45419;-66
2023/05/22 06:42:52;;;;;;;;;15.67;15.67;;;;;21.78;47.52;101400.66;6214080;22;45589;-66
2023/05/22 06:45:18;;;;;;;;;14.00;11.33;;;;;22.26;46.39;101392.81;6214878;22;45459;-66
2023/05/22 06:47:44;;;;;;;;;14.67;13.00;;;;;22.59;45.65;101388.91;6214043;22;45496;-66
2023/05/22 06:50:10;;;;;;;;;12.00;11.00;;;;;23.07;45.27;101398.03;6187819;22;45668;-66
2023/05/22 06:52:37;;;;;;;;;14.67;14.00;;;;;23.65;44.82;101406.22;6215099;22;45656;-66
2023/05/22 06:55:04;;;;;;;;;17.67;14.67;;;;;24.16;43.77;101394.03;6188156;22;45482;-66
2023/05/22 06:57:33;;;;;;;;;13.67;11.33;;;;;24.45;42.17;101398.44;6186863;22;46044;-70
2023/05/22 06:59:59;;;;;;;;;17.33;13.67;;;;;24.54;41.61;101393.94;6186673;22;45346;-71
2023/05/22 07:02:25;;;;;;;;;11.33;10.00;;;;;24.82;41.87;101399.31;6187669;22;45311;-69
2023/05/22 07:04:53;;;;;;;;;13.00;13.00;;;;;25.08;40.89;101393.94;6214372;22;45512;-69
2023/05/22 07:07:18;;;;;;;;;13.67;10.67;;;;;25.30;40.56;101391.72;6214314;22;45662;-69
2023/05/22 07:09:44;;;;;;;;;14.00;10.00;;;;;25.61;39.60;101402.19;6213981;22;45220;-69
2023/05/22 07:12:09;;;;;;;;;10.33;10.33;;;;;25.89;40.38;101403.69;6188198;22;45149;-69
2023/05/22 07:14:34;;;;;;;;;11.00;11.00;;;;;26.38;37.53;101404.91;6187674;22;45545;-69
2023/05/22 07:17:00;;;;;;;;;11.33;11.33;;;;;26.69;37.84;101402.41;6187634;22;46526;-69
2023/05/22 07:19:25;;;;;;;;;14.00;12.67;;;;;26.86;38.07;101405.19;6213612;22;57378;-69
2023/05/22 07:21:50;;;;;;;;;17.00;12.00;;;;;27.04;36.97;101414.06;6214694;22;45341;-69
2023/05/22 07:24:16;;;;;;;;;12.00;12.00;;;;;27.21;36.63;101405.88;6187597;22;54761;-69
2023/05/22 07:26:45;;;;;;;;;13.00;11.33;;;;;27.30;37.13;101418.47;6213661;22;57847;-68
2023/05/22 07:29:11;;;;;;;;;12.33;12.33;;;;;27.44;37.01;101422.41;6188298;22;45636;-68
2023/05/22 07:31:37;;;;;;;;;13.33;12.00;;;;;27.58;36.26;101420.84;6187284;22;45388;-68
2023/05/22 07:34:03;;;;;;;;;14.00;13.67;;;;;27.55;35.88;101421.22;6186583;22;45214;-68
2023/05/22 07:36:28;;;;;;;;;16.00;12.00;;;;;27.70;35.18;101421.34;6214209;22;45380;-69
2023/05/22 07:38:53;;;;;;;;;10.33;10.33;;;;;27.96;35.24;101417.50;6213438;22;53675;-68
2023/05/22 07:41:20;;;;;;;;;15.67;13.00;;;;;28.20;35.48;101419.31;6187885;22;45296;-68
2023/05/22 07:43:46;;;;;;;;;17.33;15.33;;;;;28.43;34.81;101429.44;6214060;22;45423;-68
2023/05/22 07:46:11;;;;;;;;;11.33;9.33;;;;;28.63;35.24;101438.03;6214384;22;45241;-69
2023/05/22 07:48:36;;;;;;;;;15.00;12.00;;;;;29.09;33.75;101429.03;6214331;22;45545;-69
2023/05/22 07:51:02;;;;;;;;;9.67;9.67;;;;;29.36;33.25;101433.91;6187616;22;45348;-68
2023/05/22 07:53:28;;;;;;;;;12.67;10.67;;;;;29.75;33.19;101429.25;6214315;22;45460;-68
2023/05/22 07:55:53;;;;;;;;;15.00;12.67;;;;;30.13;32.60;101426.41;6187134;22;45304;-68
2023/05/22 07:58:19;;;;;;;;;12.00;12.00;;;;;30.74;31.26;101438.09;6187130;22;54128;-70
2023/05/22 08:00:45;;;;;;;;;12.67;10.67;;;;;30.85;30.80;101434.84;6186890;22;45268;-68
2023/05/22 08:03:10;;;;;;;;;13.33;10.33;;;;;30.71;31.75;101436.59;6214366;22;45240;-69
2023/05/22 08:05:36;;;;;;;;;14.33;10.33;;;;;30.79;31.65;101433.72;6211715;22;45869;-68
2023/05/22 08:08:02;;;;;;;;;11.00;9.00;;;;;30.92;31.22;101429.41;6161534;22;45327;-68
2023/05/22 08:10:28;;;;;;;;;12.00;10.67;;;;;31.04;30.99;101432.47;6164707;22;45295;-69
2023/05/22 08:12:53;;;;;;;;;10.33;10.33;;;;;30.82;29.95;101436.09;6215508;22;45502;-68
2023/05/22 08:15:19;;;;;;;;;11.67;11.67;;;;;30.68;30.81;101437.00;6215764;22;45598;-68
2023/05/22 08:17:44;;;;;;;;;10.33;10.00;;;;;30.68;30.79;101435.09;6187826;22;45353;-68
2023/05/22 08:20:10;;;;;;;;;14.67;11.00;;;;;31.46;30.28;101438.97;6215814;22;45305;-69
2023/05/22 08:22:38;;;;;;;;;12.33;11.00;;;;;31.98;29.68;101437.66;6189543;22;45385;-68
2023/05/22 08:25:03;;;;;;;;;13.00;10.67;;;;;32.75;28.80;101437.53;6213766;22;46759;-68
2023/05/22 08:27:29;;;;;;;;;14.33;11.67;;;;;33.26;28.68;101441.63;6189344;22;45295;-68
2023/05/22 08:29:55;;;;;;;;;13.33;12.00;;;;;33.51;27.77;101437.38;6187091;22;65371;-69
2023/05/22 08:32:20;;;;;;;;;12.33;11.33;;;;;33.70;26.71;101449.41;6215600;22;45363;-69
2023/05/22 08:34:46;;;;;;;;;13.67;13.00;;;;;33.63;27.95;101449.44;6187721;22;47233;-68
2023/05/22 08:37:13;;;;;;;;;16.00;14.33;;;;;33.99;26.61;101445.34;6215444;22;45340;-69
2023/05/22 08:39:39;;;;;;;;;15.00;12.67;;;;;34.86;25.91;101442.19;6215843;22;45443;-68
2023/05/22 08:42:05;;;;;;;;;11.67;9.33;;;;;35.93;26.08;101438.47;6163554;22;45419;-69
2023/05/22 08:44:30;;;;;;;;;13.00;12.33;;;;;36.72;25.51;101447.88;6188360;22;46534;-69
2023/05/22 08:46:58;;;;;;;;;11.00;11.00;;;;;38.20;24.23;101437.78;6188472;22;45314;-69
2023/05/22 08:49:24;;;;;;;;;10.67;9.33;;;;;40.00;23.64;101443.59;6189241;22;45327;-68
2023/05/22 08:51:55;;;;;;;;;14.00;11.33;;;;;41.22;21.19;101449.84;6187842;22;45431;-68
2023/05/22 08:54:22;;;;;;;;;11.00;11.00;;;;;42.01;19.81;101446.41;6163584;22;46511;-68
2023/05/22 08:56:48;;;;;;;;;15.67;13.67;;;;;42.60;20.30;101448.00;6162712;22;45438;-67
2023/05/22 08:59:14;;;;;;;;;13.75;12.25;;;;;42.25;19.80;101450.44;6188782;22;45296;-67
2023/05/22 09:01:40;;;;;;;;;13.50;10.50;;;;;41.09;19.23;101453.94;6215712;22;45395;-69
2023/05/22 09:04:05;;;;;;;;;11.00;10.67;;;;;40.95;20.60;101463.84;6215186;22;45987;-68
2023/05/22 09:06:31;;;;;;;;;9.25;9.25;;;;;40.68;20.21;101459.97;6188744;22;45365;-69
2023/05/22 09:08:57;;;;;;;;;12.00;11.25;;;;;41.05;19.74;101463.94;6188146;22;45332;-68
2023/05/22 09:11:23;;;;;;;;;12.00;10.50;;;;;41.82;19.00;101469.25;6188446;22;45583;-68
2023/05/22 09:13:50;;;;;;;;;12.25;12.25;;;;;42.12;19.00;101450.94;6162327;22;46915;-69
2023/05/22 09:16:16;;;;;;;;;13.75;10.75;;;;;41.96;19.15;101455.63;6214752;22;45360;-68
2023/05/22 09:18:41;;;;;;;;;13.25;11.25;;;;;42.02;19.28;101457.31;6215029;22;45400;-69
2023/05/22 09:21:08;;;;;;;;;13.67;12.33;;;;;42.54;19.08;101454.69;6188520;22;45340;-68
2023/05/22 09:23:33;;;;;;;;;12.33;12.00;;;;;43.17;18.63;101459.25;6215188;22;45363;-68
2023/05/22 09:26:00;;;;;;;;;15.33;12.00;;;;;43.63;17.00;101460.00;6188134;22;45304;-68
2023/05/22 09:28:26;;;;;;;;;15.67;12.33;;;;;43.31;17.96;101463.13;6188678;22;45313;-68
2023/05/22 09:30:53;;;;;;;;;11.00;11.00;;;;;42.39;17.15;101463.91;6214796;22;45307;-68
2023/05/22 09:33:19;;;;;;;;;10.75;9.50;;;;;40.95;18.15;101464.69;6188151;22;46635;-68
2023/05/22 09:35:48;;;;;;;;;12.75;11.75;;;;;39.61;18.90;101470.56;6162660;22;45290;-68
2023/05/22 09:38:14;;;;;;;;;14.25;11.50;;;;;38.48;20.17;101464.75;6188223;22;45379;-69
2023/05/22 09:40:40;;;;;;;;;12.50;12.50;;;;;37.59;20.71;101465.88;6215224;22;45451;-68
2023/05/22 09:43:09;;;;;;;;;17.33;15.67;;;;;36.71;21.47;101473.88;6215116;22;46412;-68
2023/05/22 09:45:35;;;;;;;;;15.00;14.75;;;;;35.49;22.15;101464.44;6215220;22;45241;-68
2023/05/22 09:48:01;;;;;;;;;15.00;13.33;;;;;34.49;23.02;101468.72;6188120;22;45333;-68
2023/05/22 09:50:27;;;;;;;;;15.67;13.67;;;;;33.98;23.75;101474.00;6214977;22;45476;-68
2023/05/22 09:52:53;;;;;;;;;15.33;12.67;;;;;33.81;24.07;101465.34;6213696;22;72161;-68
2023/05/22 09:55:21;;;;;;;;;14.67;12.33;;;;;34.03;24.24;101456.78;6214111;22;70538;-68
2023/05/22 09:57:50;;;;;;;;;13.67;10.33;;;;;34.70;24.40;101460.09;6187295;22;45212;-68
2023/05/22 10:00:18;;;;;;;;;14.67;12.33;;;;;36.57;23.31;101465.78;6187814;22;45579;-68
2023/05/22 10:02:48;;;;;;;;;12.33;11.33;;;;;38.39;22.58;101458.72;6214804;22;46178;-68
2023/05/22 10:05:20;;;;;;;;;14.00;12.33;;;;;39.52;20.92;101459.06;6214431;22;45209;-68
2023/05/22 10:07:50;;;;;;;;;14.67;12.67;;;;;40.99;19.98;101463.06;6189551;22;45301;-68
2023/05/22 10:10:23;;;;;;;;;13.00;12.00;;;;;43.12;19.26;101457.31;6214857;22;45460;-68
2023/05/22 10:12:56;;;;;;;;;15.00;15.00;;;;;44.80;17.92;101447.69;6187336;22;45399;-68
2023/05/22 10:15:22;;;;;;;;;16.67;14.67;;;;;45.86;16.16;101456.44;6187847;22;45289;-69
2023/05/22 10:17:48;;;;;;;;;12.67;12.67;;;;;45.69;16.87;101448.50;6188121;22;45464;-68
2023/05/22 10:20:15;;;;;;;;;18.67;16.33;;;;;46.15;14.75;101447.91;6162783;22;45276;-68
2023/05/22 10:22:41;;;;;;;;;15.33;15.00;;;;;46.32;15.63;101449.38;6187701;22;45233;-68
2023/05/22 10:25:07;;;;;;;;;16.67;16.33;;;;;46.97;16.02;101437.34;6188503;22;45123;-68
2023/05/22 10:27:32;;;;;;;;;17.00;16.67;;;;;48.50;14.63;101447.75;6215011;22;45325;-67
2023/05/22 10:30:26;;;;;;;;;18.00;18.00;;;;;49.79;14.24;101444.34;6187423;22;58213;-68
2023/05/22 10:32:56;;;;;;;;;15.33;14.67;;;;;50.64;14.06;101445.91;6213178;22;45311;-68
2023/05/22 10:35:27;;;;;;;;;14.50;14.50;;;;;50.13;13.17;101449.25;6162709;22;45369;-67
2023/05/22 10:37:54;;;;;;;;;21.67;18.67;;;;;49.83;12.47;101449.00;6214476;22;45468;-68
2023/05/22 10:40:27;;;;;;;;;17.33;16.00;;;;;49.48;13.10;101443.25;6188329;22;45730;-67
2023/05/22 10:42:56;;;;;;;;;17.33;17.33;;;;;50.50;13.24;101445.25;6188304;22;45739;-67
2023/05/22 10:45:24;;;;;;;;;13.00;13.00;;;;;51.47;12.83;101441.03;6187128;22;45774;-67
2023/05/22 10:48:00;;;;;;;;;17.67;16.00;;;;;52.05;12.64;101421.50;6214756;22;45315;-68
2023/05/22 10:50:26;;;;;;;;;20.00;19.00;;;;;52.88;11.91;101424.56;6188033;22;45250;-67
2023/05/22 10:53:17;;;;;;;;;17.33;17.33;;;;;53.66;11.70;101426.78;6186493;22;73102;-67
2023/05/22 10:55:55;;;;;;;;;19.00;16.67;;;;;53.95;10.75;101424.84;6214551;22;45319;-67
2023/05/22 10:58:29;;;;;;;;;19.33;17.00;;;;;52.93;11.65;101424.34;6215223;22;45366;-68
2023/05/22 11:01:14;;;;;;;;;21.00;17.33;;;;;50.47;11.91;101418.47;6214542;22;45494;-68
2023/05/22 11:04:03;;;;;;;;;18.00;17.00;;;;;49.14;12.17;101412.84;6214038;22;46246;-68
2023/05/22 11:06:36;;;;;;;;;20.67;20.67;;;;;49.32;12.28;101414.63;6205543;22;45339;-68
2023/05/22 11:09:20;;;;;;;;;16.67;16.00;;;;;49.00;12.68;101410.13;6213897;22;45335;-68